createdAt,value
2019-03-25T00:00:08.720Z,1017.3677
2019-03-25T00:00:20.462Z,1017.363
2019-03-25T00:00:33.282Z,1017.2845
2019-03-25T00:00:45.022Z,1017.296
2019-03-25T00:00:56.785Z,1017.2652
2019-03-25T00:01:08.553Z,1017.2681
2019-03-25T00:01:20.789Z,1017.2684
2019-03-25T00:01:32.787Z,1017.1866
2019-03-25T00:01:44.544Z,1017.18
2019-03-25T00:01:56.302Z,1017.1915
2019-03-25T00:02:08.070Z,1017.1997
2019-03-25T00:02:19.840Z,1017.2095
2019-03-25T00:02:31.577Z,1017.1748
2019-03-25T00:02:43.367Z,1017.2256
2019-03-25T00:02:55.141Z,1017.1832
2019-03-25T00:03:07.750Z,1017.1879
2019-03-25T00:03:19.517Z,1017.2076
2019-03-25T00:03:31.301Z,1017.1715
2019-03-25T00:03:43.052Z,1017.1633
2019-03-25T00:03:54.827Z,1017.1895
2019-03-25T00:04:06.604Z,1017.1372
2019-03-25T00:04:18.384Z,1017.1387
2019-03-25T00:04:30.205Z,1017.1342
2019-03-25T00:04:41.989Z,1017.1796
2019-03-25T00:04:53.863Z,1017.1174
2019-03-25T00:05:05.617Z,1017.1224
2019-03-25T00:05:17.409Z,1017.1649
2019-03-25T00:05:29.202Z,1017.16
2019-03-25T00:05:40.958Z,1017.1243
2019-03-25T00:05:52.723Z,1017.0568
2019-03-25T00:06:04.566Z,1017.0257
2019-03-25T00:06:16.267Z,1017.0441
2019-03-25T00:06:28.023Z,1017.087
2019-03-25T00:06:39.774Z,1017.0245
2019-03-25T00:06:51.545Z,1017.0998
2019-03-25T00:07:03.306Z,1017.0814
2019-03-25T00:07:15.067Z,1017.0441
2019-03-25T00:07:26.837Z,1017.121
2019-03-25T00:07:38.744Z,1017.0915
2019-03-25T00:07:51.506Z,1017.01
2019-03-25T00:08:03.254Z,1017.0231
2019-03-25T00:08:15.031Z,1016.9821
2019-03-25T00:08:26.770Z,1017.067
2019-03-25T00:08:38.565Z,1017.0588
2019-03-25T00:09:02.274Z,1017.031
2019-03-25T00:09:05.476Z,1017.0097
2019-03-25T00:09:15.803Z,1017.0457
2019-03-25T00:09:27.563Z,1017.0359
2019-03-25T00:09:39.362Z,1017.0371
2019-03-25T00:09:51.117Z,1017.0126
2019-03-25T00:10:02.920Z,1016.9556
2019-03-25T00:10:14.701Z,1017.0441
2019-03-25T00:10:26.482Z,1017.0326
2019-03-25T00:10:38.272Z,1017.0339
2019-03-25T00:10:50.040Z,1017.0162
2019-03-25T00:11:01.830Z,1017.0012
2019-03-25T00:11:13.617Z,1016.9639
2019-03-25T00:11:25.372Z,1017.0192
2019-03-25T00:11:37.148Z,1016.9995
2019-03-25T00:11:48.903Z,1016.9766
2019-03-25T00:12:00.681Z,1016.911
2019-03-25T00:12:12.465Z,1016.9734
2019-03-25T00:12:24.211Z,1016.9095
2019-03-25T00:12:36.059Z,1016.9448
2019-03-25T00:12:47.835Z,1016.9193
2019-03-25T00:12:59.604Z,1016.8764
2019-03-25T00:13:11.349Z,1016.914
2019-03-25T00:13:23.146Z,1017.0008
2019-03-25T00:13:34.889Z,1016.8632
2019-03-25T00:13:46.672Z,1016.9874
2019-03-25T00:13:58.439Z,1016.9121
2019-03-25T00:14:10.256Z,1016.8632
2019-03-25T00:14:21.992Z,1016.878
2019-03-25T00:14:33.786Z,1016.9219
2019-03-25T00:14:45.564Z,1016.8956
2019-03-25T00:14:57.338Z,1016.9412
2019-03-25T00:15:09.099Z,1016.9071
2019-03-25T00:15:20.870Z,1016.9104
2019-03-25T00:15:32.624Z,1016.9301
2019-03-25T00:15:44.406Z,1016.9134
2019-03-25T00:15:56.533Z,1016.8737
2019-03-25T00:16:07.892Z,1016.8544
2019-03-25T00:16:19.679Z,1016.8675
2019-03-25T00:16:31.450Z,1016.8085
2019-03-25T00:16:43.216Z,1016.841
2019-03-25T00:16:54.996Z,1016.8281
2019-03-25T00:17:06.768Z,1016.7673
2019-03-25T00:17:18.552Z,1016.8527
2019-03-25T00:17:30.338Z,1016.7525
2019-03-25T00:17:42.107Z,1016.7722
2019-03-25T00:17:53.882Z,1016.7836
2019-03-25T00:18:05.648Z,1016.8082
2019-03-25T00:18:17.448Z,1016.7853
2019-03-25T00:18:29.193Z,1016.7572
2019-03-25T00:18:40.980Z,1016.7473
2019-03-25T00:18:52.752Z,1016.7849
2019-03-25T00:19:04.535Z,1016.7738
2019-03-25T00:19:16.303Z,1016.8343
2019-03-25T00:19:28.065Z,1016.7639
2019-03-25T00:19:39.854Z,1016.7833
2019-03-25T00:19:51.635Z,1016.736
2019-03-25T00:20:03.422Z,1016.782
2019-03-25T00:20:15.162Z,1016.7853
2019-03-25T00:20:26.954Z,1016.7591
2019-03-25T00:20:38.751Z,1016.8016
2019-03-25T00:20:50.503Z,1016.7329
2019-03-25T00:21:02.270Z,1016.7476
2019-03-25T00:21:14.010Z,1016.7345
2019-03-25T00:21:25.780Z,1016.7165
2019-03-25T00:21:37.560Z,1016.6723
2019-03-25T00:21:49.361Z,1016.6864
2019-03-25T00:22:01.153Z,1016.647
2019-03-25T00:22:12.945Z,1016.7161
2019-03-25T00:22:24.726Z,1016.6945
2019-03-25T00:22:36.510Z,1016.6952
2019-03-25T00:22:48.266Z,1016.6801
2019-03-25T00:23:00.019Z,1016.6846
2019-03-25T00:23:11.797Z,1016.7485
2019-03-25T00:23:23.551Z,1016.6687
2019-03-25T00:23:35.346Z,1016.7142
2019-03-25T00:23:47.248Z,1016.6896
2019-03-25T00:23:59.023Z,1016.7273
2019-03-25T00:24:10.804Z,1016.7288
2019-03-25T00:24:23.539Z,1016.704
2019-03-25T00:24:38.850Z,1016.7433
2019-03-25T00:24:48.050Z,1016.7577
2019-03-25T00:24:59.790Z,1016.7662
2019-03-25T00:25:11.544Z,1016.8367
2019-03-25T00:25:23.338Z,1016.8035
2019-03-25T00:25:35.100Z,1016.8848
2019-03-25T00:25:46.872Z,1016.8361
2019-03-25T00:25:58.669Z,1016.8376
2019-03-25T00:26:10.417Z,1016.911
2019-03-25T00:26:22.175Z,1016.8776
2019-03-25T00:26:33.972Z,1016.9781
2019-03-25T00:26:45.727Z,1017.0538
2019-03-25T00:26:57.503Z,1016.9851
2019-03-25T00:27:09.265Z,1017.0017
2019-03-25T00:27:21.018Z,1017.0551
2019-03-25T00:27:32.800Z,1017.1259
2019-03-25T00:27:44.558Z,1017.1509
2019-03-25T00:27:56.314Z,1017.231
2019-03-25T00:28:08.093Z,1017.3027
2019-03-25T00:28:19.839Z,1017.3363
2019-03-25T00:28:31.613Z,1017.4198
2019-03-25T00:28:43.464Z,1017.405
2019-03-25T00:28:56.281Z,1017.4935
2019-03-25T00:29:15.609Z,1017.4349
2019-03-25T00:29:27.379Z,1017.4595
2019-03-25T00:29:39.176Z,1017.3713
2019-03-25T00:29:50.946Z,1017.5777
2019-03-25T00:30:02.715Z,1017.5256
2019-03-25T00:30:14.497Z,1017.5059
2019-03-25T00:30:26.282Z,1017.4902
2019-03-25T00:30:38.052Z,1017.4646
2019-03-25T00:30:49.806Z,1017.4925
2019-03-25T00:31:01.557Z,1017.4624
2019-03-25T00:31:13.346Z,1017.4398
2019-03-25T00:31:25.152Z,1017.4044
2019-03-25T00:31:36.913Z,1017.4342
2019-03-25T00:31:48.680Z,1017.4382
2019-03-25T00:32:00.426Z,1017.3965
2019-03-25T00:32:12.189Z,1017.4213
2019-03-25T00:32:23.969Z,1017.4322
2019-03-25T00:32:35.727Z,1017.4099
2019-03-25T00:32:47.485Z,1017.5055
2019-03-25T00:32:59.282Z,1017.4832
2019-03-25T00:33:11.060Z,1017.4809
2019-03-25T00:33:22.853Z,1017.4583
2019-03-25T00:33:34.652Z,1017.4743
2019-03-25T00:33:46.438Z,1017.5207
2019-03-25T00:33:58.211Z,1017.5178
2019-03-25T00:34:10.013Z,1017.4356
2019-03-25T00:34:21.769Z,1017.4932
2019-03-25T00:34:33.512Z,1017.5053
2019-03-25T00:34:45.336Z,1017.4351
2019-03-25T00:34:57.073Z,1017.4799
2019-03-25T00:35:08.865Z,1017.4728
2019-03-25T00:35:20.659Z,1017.4537
2019-03-25T00:35:32.417Z,1017.4134
2019-03-25T00:35:44.222Z,1017.4206
2019-03-25T00:35:56.001Z,1017.447
2019-03-25T00:36:07.767Z,1017.3743
2019-03-25T00:36:19.543Z,1017.4073
2019-03-25T00:36:31.320Z,1017.4439
2019-03-25T00:36:43.110Z,1017.3987
2019-03-25T00:36:54.870Z,1017.4173
2019-03-25T00:37:06.665Z,1017.416
2019-03-25T00:37:18.421Z,1017.4425
2019-03-25T00:37:30.229Z,1017.4218
2019-03-25T00:37:42.015Z,1017.4138
2019-03-25T00:37:53.813Z,1017.3864
2019-03-25T00:38:05.577Z,1017.4593
2019-03-25T00:38:17.326Z,1017.4056
2019-03-25T00:38:29.076Z,1017.4484
2019-03-25T00:38:40.868Z,1017.4719
2019-03-25T00:38:52.628Z,1017.4051
2019-03-25T00:39:04.413Z,1017.5441
2019-03-25T00:39:16.211Z,1017.4564
2019-03-25T00:39:28.011Z,1017.3864
2019-03-25T00:39:39.776Z,1017.4504
2019-03-25T00:39:51.551Z,1017.4341
2019-03-25T00:40:03.303Z,1017.3248
2019-03-25T00:40:15.226Z,1017.4036
2019-03-25T00:40:26.973Z,1017.3486
2019-03-25T00:40:38.737Z,1017.3616
2019-03-25T00:40:50.509Z,1017.3535
2019-03-25T00:41:02.290Z,1017.362
2019-03-25T00:41:14.065Z,1017.4173
2019-03-25T00:41:25.816Z,1017.359
2019-03-25T00:41:37.563Z,1017.3574
2019-03-25T00:41:49.322Z,1017.289
2019-03-25T00:42:01.097Z,1017.3233
2019-03-25T00:42:12.854Z,1017.3253
2019-03-25T00:42:24.607Z,1017.3092
2019-03-25T00:42:36.369Z,1017.3007
2019-03-25T00:42:48.158Z,1017.2966
2019-03-25T00:42:59.927Z,1017.2556
2019-03-25T00:43:11.700Z,1017.2673
2019-03-25T00:43:23.498Z,1017.2901
2019-03-25T00:43:35.260Z,1017.3507
2019-03-25T00:43:47.057Z,1017.3117
2019-03-25T00:43:58.839Z,1017.2869
2019-03-25T00:44:10.634Z,1017.2548
2019-03-25T00:44:22.397Z,1017.2413
2019-03-25T00:44:34.187Z,1017.2191
2019-03-25T00:44:45.928Z,1017.2466
2019-03-25T00:44:57.684Z,1017.2433
2019-03-25T00:45:09.471Z,1017.2324
2019-03-25T00:45:21.272Z,1017.2782
2019-03-25T00:45:33.048Z,1017.2899
2019-03-25T00:45:44.802Z,1017.2915
2019-03-25T00:45:56.565Z,1017.2543
2019-03-25T00:46:08.357Z,1017.246
2019-03-25T00:46:20.129Z,1017.2804
2019-03-25T00:46:31.887Z,1017.3131
2019-03-25T00:46:43.656Z,1017.2235
2019-03-25T00:46:55.445Z,1017.279
2019-03-25T00:47:07.228Z,1017.279
2019-03-25T00:47:18.984Z,1017.2159
2019-03-25T00:47:30.749Z,1017.279
2019-03-25T00:47:42.526Z,1017.2453
2019-03-25T00:47:54.276Z,1017.2636
2019-03-25T00:48:06.028Z,1017.327
2019-03-25T00:48:17.787Z,1017.2701
2019-03-25T00:48:29.550Z,1017.3208
2019-03-25T00:48:41.305Z,1017.2946
2019-03-25T00:48:53.060Z,1017.308
2019-03-25T00:49:05.812Z,1017.3783
2019-03-25T00:49:17.530Z,1017.2082
2019-03-25T00:49:29.286Z,1017.3524
2019-03-25T00:49:41.089Z,1017.2036
2019-03-25T00:49:52.828Z,1017.2739
2019-03-25T00:50:04.678Z,1017.284
2019-03-25T00:50:16.458Z,1017.2955
2019-03-25T00:50:28.244Z,1017.2926
2019-03-25T00:50:39.994Z,1017.2814
2019-03-25T00:50:51.808Z,1017.3579
2019-03-25T00:51:03.561Z,1017.3432
2019-03-25T00:51:15.347Z,1017.311
2019-03-25T00:51:27.158Z,1017.27
2019-03-25T00:51:38.880Z,1017.3258
2019-03-25T00:51:50.642Z,1017.3311
2019-03-25T00:52:02.411Z,1017.3964
2019-03-25T00:52:14.177Z,1017.3685
2019-03-25T00:52:25.961Z,1017.3163
2019-03-25T00:52:37.704Z,1017.3329
2019-03-25T00:52:49.503Z,1017.3018
2019-03-25T00:53:01.279Z,1017.3231
2019-03-25T00:53:13.037Z,1017.3186
2019-03-25T00:53:24.831Z,1017.2972
2019-03-25T00:53:36.589Z,1017.3531
2019-03-25T00:53:48.361Z,1017.3629
2019-03-25T00:54:00.130Z,1017.3728
2019-03-25T00:54:11.889Z,1017.3498
2019-03-25T00:54:23.673Z,1017.3289
2019-03-25T00:54:35.469Z,1017.3144
2019-03-25T00:54:50.106Z,1017.3684
2019-03-25T00:54:59.977Z,1017.2703
2019-03-25T00:55:11.900Z,1017.3389
2019-03-25T00:55:23.693Z,1017.2523
2019-03-25T00:55:35.465Z,1017.2757
2019-03-25T00:55:47.253Z,1017.3032
2019-03-25T00:55:59.016Z,1017.3134
2019-03-25T00:56:10.789Z,1017.3329
2019-03-25T00:56:22.560Z,1017.2823
2019-03-25T00:56:34.317Z,1017.2548
2019-03-25T00:56:46.084Z,1017.2581
2019-03-25T00:56:57.874Z,1017.3378
2019-03-25T00:57:09.640Z,1017.3303
2019-03-25T00:57:21.408Z,1017.2662
2019-03-25T00:57:33.187Z,1017.2874
2019-03-25T00:57:44.950Z,1017.2498
2019-03-25T00:57:56.731Z,1017.2357
2019-03-25T00:58:08.519Z,1017.2387
2019-03-25T00:58:20.298Z,1017.2731
2019-03-25T00:58:32.067Z,1017.1755
2019-03-25T00:58:43.840Z,1017.2196
2019-03-25T00:58:55.612Z,1017.2327
2019-03-25T00:59:07.379Z,1017.2131
2019-03-25T00:59:19.128Z,1017.2
2019-03-25T00:59:30.914Z,1017.2687
2019-03-25T00:59:42.685Z,1017.182
2019-03-25T00:59:54.479Z,1017.2229
2019-03-25T01:00:07.371Z,1017.1771
2019-03-25T01:00:19.135Z,1017.1922
2019-03-25T01:00:30.925Z,1017.2033
2019-03-25T01:00:42.694Z,1017.1755
2019-03-25T01:00:54.490Z,1017.2164
2019-03-25T01:01:06.277Z,1017.2279
2019-03-25T01:01:18.034Z,1017.2572
2019-03-25T01:01:30.804Z,1017.2147
2019-03-25T01:01:42.588Z,1017.1853
2019-03-25T01:01:54.361Z,1017.27
2019-03-25T01:02:06.100Z,1017.2245
2019-03-25T01:02:17.852Z,1017.2248
2019-03-25T01:02:29.611Z,1017.2131
2019-03-25T01:02:41.417Z,1017.2131
2019-03-25T01:02:53.189Z,1017.2082
2019-03-25T01:03:04.934Z,1017.1918
2019-03-25T01:03:16.690Z,1017.2033
2019-03-25T01:03:28.462Z,1017.2395
2019-03-25T01:03:40.207Z,1017.2084
2019-03-25T01:03:51.950Z,1017.1513
2019-03-25T01:04:03.735Z,1017.194
2019-03-25T01:04:15.503Z,1017.1531
2019-03-25T01:04:27.256Z,1017.2055
2019-03-25T01:04:39.027Z,1017.1973
2019-03-25T01:04:50.793Z,1017.2042
2019-03-25T01:05:02.582Z,1017.1617
2019-03-25T01:05:14.353Z,1017.1551
2019-03-25T01:05:26.127Z,1017.1878
2019-03-25T01:05:37.895Z,1017.1796
2019-03-25T01:05:49.660Z,1017.1746
2019-03-25T01:06:01.437Z,1017.1587
2019-03-25T01:06:13.203Z,1017.1815
2019-03-25T01:06:24.961Z,1017.1698
2019-03-25T01:06:36.724Z,1017.1439
2019-03-25T01:06:48.507Z,1017.1279
2019-03-25T01:07:00.287Z,1017.1375
2019-03-25T01:07:12.044Z,1017.0968
2019-03-25T01:07:23.803Z,1017.1148
2019-03-25T01:07:35.558Z,1017.1409
2019-03-25T01:07:47.351Z,1017.1493
2019-03-25T01:07:59.094Z,1017.1917
2019-03-25T01:08:10.920Z,1017.0889
2019-03-25T01:08:22.678Z,1017.1752
2019-03-25T01:08:34.455Z,1017.0792
2019-03-25T01:08:46.219Z,1017.1464
2019-03-25T01:08:58.000Z,1017.1545
2019-03-25T01:09:09.781Z,1017.1774
2019-03-25T01:09:21.536Z,1017.2117
2019-03-25T01:09:33.334Z,1017.1238
2019-03-25T01:09:45.084Z,1017.1175
2019-03-25T01:09:56.859Z,1017.176
2019-03-25T01:10:08.620Z,1017.1325
2019-03-25T01:10:20.393Z,1017.1603
2019-03-25T01:10:32.177Z,1017.1328
2019-03-25T01:10:43.933Z,1017.1001
2019-03-25T01:10:55.703Z,1017.1704
2019-03-25T01:11:07.475Z,1017.1527
2019-03-25T01:11:19.245Z,1017.1624
2019-03-25T01:11:30.985Z,1017.184
2019-03-25T01:11:48.848Z,1017.1889
2019-03-25T01:11:55.498Z,1017.107
2019-03-25T01:12:07.257Z,1017.1892
2019-03-25T01:12:20.001Z,1017.114
2019-03-25T01:12:31.792Z,1017.15
2019-03-25T01:12:43.581Z,1017.1091
2019-03-25T01:12:55.336Z,1017.2003
2019-03-25T01:13:07.148Z,1017.1873
2019-03-25T01:13:18.896Z,1017.1503
2019-03-25T01:13:30.661Z,1017.1729
2019-03-25T01:13:42.428Z,1017.1876
2019-03-25T01:13:54.185Z,1017.1928
2019-03-25T01:14:05.971Z,1017.1486
2019-03-25T01:14:17.855Z,1017.1486
2019-03-25T01:14:29.618Z,1017.1715
2019-03-25T01:14:41.381Z,1017.2042
2019-03-25T01:14:53.181Z,1017.1995
2019-03-25T01:15:04.931Z,1017.2368
2019-03-25T01:15:16.693Z,1017.1813
2019-03-25T01:15:28.460Z,1017.1521
2019-03-25T01:15:40.237Z,1017.2091
2019-03-25T01:15:52.010Z,1017.1699
2019-03-25T01:16:03.772Z,1017.126
2019-03-25T01:16:15.527Z,1017.16
2019-03-25T01:16:27.289Z,1017.1503
2019-03-25T01:16:39.069Z,1017.1925
2019-03-25T01:16:50.846Z,1017.1584
2019-03-25T01:17:02.622Z,1017.1209
2019-03-25T01:17:14.397Z,1017.1222
2019-03-25T01:17:26.170Z,1017.1239
2019-03-25T01:17:37.987Z,1017.1303
2019-03-25T01:17:49.751Z,1017.1043
2019-03-25T01:18:01.526Z,1017.1203
2019-03-25T01:18:16.997Z,1017.1104
2019-03-25T01:18:25.974Z,1017.0647
2019-03-25T01:18:37.731Z,1017.1199
2019-03-25T01:18:49.496Z,1017.0922
2019-03-25T01:19:01.284Z,1017.0418
2019-03-25T01:19:13.053Z,1017.068
2019-03-25T01:19:24.835Z,1017.0565
2019-03-25T01:19:36.632Z,1017.0497
2019-03-25T01:19:48.380Z,1017.084
2019-03-25T01:20:00.350Z,1017.071
2019-03-25T01:20:11.927Z,1017.0418
2019-03-25T01:20:23.748Z,1017.0726
2019-03-25T01:20:35.473Z,1017.1051
2019-03-25T01:20:47.260Z,1017.1132
2019-03-25T01:20:59.034Z,1017.0396
2019-03-25T01:21:10.801Z,1017.0737
2019-03-25T01:21:22.628Z,1017.0731
2019-03-25T01:21:34.392Z,1017.0554
2019-03-25T01:21:46.160Z,1017.1077
2019-03-25T01:21:57.932Z,1017.0781
2019-03-25T01:22:09.705Z,1017.0228
2019-03-25T01:22:21.458Z,1017.0518
2019-03-25T01:22:33.247Z,1017.0663
2019-03-25T01:22:44.990Z,1017.0274
2019-03-25T01:22:56.807Z,1017.0241
2019-03-25T01:23:08.563Z,1017.0058
2019-03-25T01:23:20.339Z,1017.0056
2019-03-25T01:23:32.113Z,1016.9712
2019-03-25T01:23:44.885Z,1016.8781
2019-03-25T01:23:56.666Z,1016.966
2019-03-25T01:24:08.444Z,1016.9497
2019-03-25T01:24:20.272Z,1016.9006
2019-03-25T01:24:32.034Z,1016.938
2019-03-25T01:24:43.798Z,1016.9151
2019-03-25T01:25:01.631Z,1016.8369
2019-03-25T01:25:08.312Z,1016.8709
2019-03-25T01:25:20.067Z,1016.8657
2019-03-25T01:25:31.882Z,1016.8625
2019-03-25T01:25:43.627Z,1016.8867
2019-03-25T01:25:55.375Z,1016.8494
2019-03-25T01:26:07.162Z,1016.8214
2019-03-25T01:26:18.919Z,1016.8292
2019-03-25T01:26:30.688Z,1016.8244
2019-03-25T01:26:42.442Z,1016.7929
2019-03-25T01:26:54.200Z,1016.8012
2019-03-25T01:27:05.965Z,1016.7704
2019-03-25T01:27:17.749Z,1016.7246
2019-03-25T01:27:29.510Z,1016.7472
2019-03-25T01:27:41.291Z,1016.7404
2019-03-25T01:27:53.203Z,1016.7015
2019-03-25T01:28:04.966Z,1016.7434
2019-03-25T01:28:16.724Z,1016.7287
2019-03-25T01:28:28.482Z,1016.7189
2019-03-25T01:28:40.238Z,1016.7036
2019-03-25T01:28:52.001Z,1016.7232
2019-03-25T01:29:03.790Z,1016.7496
2019-03-25T01:29:15.539Z,1016.6907
2019-03-25T01:29:27.321Z,1016.682
2019-03-25T01:29:39.119Z,1016.7196
2019-03-25T01:29:50.927Z,1016.6264
2019-03-25T01:30:02.722Z,1016.6218
2019-03-25T01:30:14.479Z,1016.6232
2019-03-25T01:30:26.233Z,1016.6637
2019-03-25T01:30:38.021Z,1016.6556
2019-03-25T01:30:49.769Z,1016.7223
2019-03-25T01:31:01.535Z,1016.7178
2019-03-25T01:31:13.294Z,1016.7422
2019-03-25T01:31:25.101Z,1016.7485
2019-03-25T01:31:36.875Z,1016.7796
2019-03-25T01:31:48.675Z,1016.7845
2019-03-25T01:32:00.419Z,1016.7874
2019-03-25T01:32:12.188Z,1016.7809
2019-03-25T01:32:23.963Z,1016.7495
2019-03-25T01:32:36.718Z,1016.7462
2019-03-25T01:32:48.529Z,1016.7492
2019-03-25T01:33:00.289Z,1016.7787
2019-03-25T01:33:12.062Z,1016.7754
2019-03-25T01:33:23.865Z,1016.7931
2019-03-25T01:33:35.619Z,1016.7734
2019-03-25T01:33:47.359Z,1016.7734
2019-03-25T01:33:59.149Z,1016.7424
2019-03-25T01:34:10.919Z,1016.7454
2019-03-25T01:34:22.694Z,1016.729
2019-03-25T01:34:34.474Z,1016.6898
2019-03-25T01:34:46.247Z,1016.7517
2019-03-25T01:34:58.046Z,1016.732
2019-03-25T01:35:09.808Z,1016.7712
2019-03-25T01:35:21.574Z,1016.8052
2019-03-25T01:35:33.368Z,1016.7628
2019-03-25T01:35:45.140Z,1016.7186
2019-03-25T01:35:56.895Z,1016.802
2019-03-25T01:36:08.658Z,1016.7532
2019-03-25T01:36:20.439Z,1016.8052
2019-03-25T01:36:33.193Z,1016.7938
2019-03-25T01:36:44.993Z,1016.7924
2019-03-25T01:36:56.766Z,1016.8301
2019-03-25T01:37:08.537Z,1016.8361
2019-03-25T01:37:20.309Z,1016.8265
2019-03-25T01:37:32.106Z,1016.8641
2019-03-25T01:37:43.853Z,1016.8281
2019-03-25T01:37:55.616Z,1016.781
2019-03-25T01:38:07.388Z,1016.8382
2019-03-25T01:38:19.138Z,1016.8367
2019-03-25T01:38:30.952Z,1016.887
2019-03-25T01:38:42.718Z,1016.8657
2019-03-25T01:38:54.500Z,1016.8576
2019-03-25T01:39:06.289Z,1016.8838
2019-03-25T01:39:18.201Z,1016.872
2019-03-25T01:39:29.956Z,1016.8657
2019-03-25T01:39:41.720Z,1016.8822
2019-03-25T01:39:53.503Z,1016.9227
2019-03-25T01:40:05.289Z,1016.921
2019-03-25T01:40:17.069Z,1016.8914
2019-03-25T01:40:28.843Z,1016.8884
2019-03-25T01:40:40.654Z,1016.8657
2019-03-25T01:40:52.407Z,1016.872
2019-03-25T01:41:04.166Z,1016.893
2019-03-25T01:41:15.931Z,1016.8914
2019-03-25T01:41:27.696Z,1016.8884
2019-03-25T01:41:39.457Z,1016.8622
2019-03-25T01:41:51.208Z,1016.8442
2019-03-25T01:42:02.955Z,1016.859
2019-03-25T01:42:14.703Z,1016.9093
2019-03-25T01:42:26.489Z,1016.8829
2019-03-25T01:42:38.253Z,1016.8504
2019-03-25T01:42:50.010Z,1016.8256
2019-03-25T01:43:01.774Z,1016.8587
2019-03-25T01:43:13.552Z,1016.8322
2019-03-25T01:43:25.307Z,1016.8485
2019-03-25T01:43:37.045Z,1016.8878
2019-03-25T01:43:48.837Z,1016.8339
2019-03-25T01:44:00.575Z,1016.7734
2019-03-25T01:44:12.360Z,1016.8074
2019-03-25T01:44:24.139Z,1016.8371
2019-03-25T01:44:35.921Z,1016.8449
2019-03-25T01:44:47.737Z,1016.7878
2019-03-25T01:44:59.536Z,1016.775
2019-03-25T01:45:11.297Z,1016.7485
2019-03-25T01:45:23.044Z,1016.7731
2019-03-25T01:45:34.821Z,1016.7861
2019-03-25T01:45:46.607Z,1016.7374
2019-03-25T01:45:58.356Z,1016.7894
2019-03-25T01:46:10.109Z,1016.7976
2019-03-25T01:46:21.873Z,1016.7485
2019-03-25T01:46:33.621Z,1016.8009
2019-03-25T01:46:45.410Z,1016.76
2019-03-25T01:46:57.154Z,1016.7832
2019-03-25T01:47:08.923Z,1016.7796
2019-03-25T01:47:20.709Z,1016.7665
2019-03-25T01:47:32.465Z,1016.8123
2019-03-25T01:47:44.228Z,1016.7714
2019-03-25T01:47:56.012Z,1016.7665
2019-03-25T01:48:07.789Z,1016.7926
2019-03-25T01:48:19.572Z,1016.7943
2019-03-25T01:48:31.321Z,1016.7256
2019-03-25T01:48:43.100Z,1016.7518
2019-03-25T01:48:54.857Z,1016.7273
2019-03-25T01:49:06.601Z,1016.7515
2019-03-25T01:49:18.381Z,1016.7321
2019-03-25T01:49:30.121Z,1016.778
2019-03-25T01:49:41.881Z,1016.7221
2019-03-25T01:49:53.699Z,1016.7501
2019-03-25T01:50:05.479Z,1016.6945
2019-03-25T01:50:17.270Z,1016.7076
2019-03-25T01:50:29.049Z,1016.6812
2019-03-25T01:50:40.820Z,1016.6893
2019-03-25T01:50:52.600Z,1016.7106
2019-03-25T01:51:04.369Z,1016.7204
2019-03-25T01:51:16.166Z,1016.7073
2019-03-25T01:51:27.925Z,1016.7204
2019-03-25T01:51:39.755Z,1016.7204
2019-03-25T01:51:51.525Z,1016.7463
2019-03-25T01:52:03.302Z,1016.774
2019-03-25T01:52:15.049Z,1016.7413
2019-03-25T01:52:26.859Z,1016.7022
2019-03-25T01:52:38.629Z,1016.7512
2019-03-25T01:52:50.428Z,1016.7204
2019-03-25T01:53:02.197Z,1016.74
2019-03-25T01:53:13.974Z,1016.7156
2019-03-25T01:53:25.733Z,1016.725
2019-03-25T01:53:37.543Z,1016.7413
2019-03-25T01:53:49.306Z,1016.7368
2019-03-25T01:54:01.080Z,1016.7299
2019-03-25T01:54:12.846Z,1016.7043
2019-03-25T01:54:24.611Z,1016.7109
2019-03-25T01:54:36.369Z,1016.7156
2019-03-25T01:54:48.145Z,1016.7073
2019-03-25T01:54:59.885Z,1016.6992
2019-03-25T01:55:13.568Z,1016.7106
2019-03-25T01:55:24.402Z,1016.6962
2019-03-25T01:55:36.161Z,1016.6929
2019-03-25T01:55:47.927Z,1016.7028
2019-03-25T01:55:59.724Z,1016.6998
2019-03-25T01:56:11.502Z,1016.6978
2019-03-25T01:56:23.278Z,1016.6916
2019-03-25T01:56:35.042Z,1016.7043
2019-03-25T01:56:46.835Z,1016.7095
2019-03-25T01:56:58.584Z,1016.7341
2019-03-25T01:57:10.372Z,1016.6903
2019-03-25T01:57:22.144Z,1016.7178
2019-03-25T01:57:33.903Z,1016.7214
2019-03-25T01:57:45.682Z,1016.7082
2019-03-25T01:57:57.453Z,1016.7115
2019-03-25T01:58:09.218Z,1016.7295
2019-03-25T01:58:20.974Z,1016.6777
2019-03-25T01:58:32.745Z,1016.7039
2019-03-25T01:58:44.543Z,1016.6777
2019-03-25T01:58:56.323Z,1016.6925
2019-03-25T01:59:08.076Z,1016.7151
2019-03-25T01:59:19.838Z,1016.7086
2019-03-25T01:59:31.618Z,1016.7053
2019-03-25T01:59:43.391Z,1016.7072
2019-03-25T01:59:55.161Z,1016.6843
2019-03-25T02:00:06.928Z,1016.6663
2019-03-25T02:00:18.682Z,1016.6434
2019-03-25T02:00:30.451Z,1016.7023
2019-03-25T02:00:42.228Z,1016.6813
2019-03-25T02:00:53.994Z,1016.6339
2019-03-25T02:01:05.806Z,1016.6453
2019-03-25T02:01:17.585Z,1016.6326
2019-03-25T02:01:29.408Z,1016.6535
2019-03-25T02:01:41.166Z,1016.6453
2019-03-25T02:01:52.902Z,1016.6994
2019-03-25T02:02:04.656Z,1016.6389
2019-03-25T02:02:16.433Z,1016.7039
2019-03-25T02:02:28.214Z,1016.6551
2019-03-25T02:02:40.009Z,1016.6339
2019-03-25T02:02:51.777Z,1016.6552
2019-03-25T02:03:03.550Z,1016.6029
2019-03-25T02:03:15.305Z,1016.6221
2019-03-25T02:03:27.115Z,1016.6595
2019-03-25T02:03:38.879Z,1016.6271
2019-03-25T02:03:50.654Z,1016.6516
2019-03-25T02:04:02.376Z,1016.6418
2019-03-25T02:04:14.148Z,1016.6369
2019-03-25T02:04:25.907Z,1016.6663
2019-03-25T02:04:37.675Z,1016.6372
2019-03-25T02:04:49.449Z,1016.6565
2019-03-25T02:05:01.237Z,1016.6663
2019-03-25T02:05:13.003Z,1016.6908
2019-03-25T02:05:24.746Z,1016.6663
2019-03-25T02:05:36.557Z,1016.6975
2019-03-25T02:05:48.304Z,1016.6676
2019-03-25T02:06:00.046Z,1016.6565
2019-03-25T02:06:11.816Z,1016.6666
2019-03-25T02:06:23.597Z,1016.6676
2019-03-25T02:06:35.388Z,1016.6634
2019-03-25T02:06:47.151Z,1016.6613
2019-03-25T02:06:58.932Z,1016.6712
2019-03-25T02:07:10.676Z,1016.6663
2019-03-25T02:07:22.432Z,1016.6827
2019-03-25T02:07:34.218Z,1016.6257
2019-03-25T02:07:45.987Z,1016.6437
2019-03-25T02:07:57.788Z,1016.6437
2019-03-25T02:08:09.535Z,1016.6473
2019-03-25T02:08:21.298Z,1016.644
2019-03-25T02:08:33.045Z,1016.644
2019-03-25T02:08:44.817Z,1016.6587
2019-03-25T02:08:56.589Z,1016.6274
2019-03-25T02:09:08.369Z,1016.7224
2019-03-25T02:09:20.105Z,1016.6293
2019-03-25T02:09:31.851Z,1016.6914
2019-03-25T02:09:43.602Z,1016.673
2019-03-25T02:09:55.418Z,1016.6423
2019-03-25T02:10:07.200Z,1016.6453
2019-03-25T02:10:18.991Z,1016.6264
2019-03-25T02:10:30.768Z,1016.6587
2019-03-25T02:10:42.512Z,1016.6636
2019-03-25T02:10:54.309Z,1016.6326
2019-03-25T02:11:06.075Z,1016.6179
2019-03-25T02:11:17.854Z,1016.6179
2019-03-25T02:11:29.648Z,1016.6391
2019-03-25T02:11:41.402Z,1016.6195
2019-03-25T02:11:53.169Z,1016.5753
2019-03-25T02:12:04.944Z,1016.6032
2019-03-25T02:12:16.703Z,1016.5934
2019-03-25T02:12:28.493Z,1016.6048
2019-03-25T02:12:40.241Z,1016.6328
2019-03-25T02:12:52.020Z,1016.6149
2019-03-25T02:13:03.808Z,1016.6068
2019-03-25T02:13:15.579Z,1016.6411
2019-03-25T02:13:27.336Z,1016.6198
2019-03-25T02:13:39.130Z,1016.6506
2019-03-25T02:13:50.917Z,1016.6554
2019-03-25T02:14:02.733Z,1016.626
2019-03-25T02:14:14.485Z,1016.677
2019-03-25T02:14:26.247Z,1016.6766
2019-03-25T02:14:38.002Z,1016.6179
2019-03-25T02:14:49.761Z,1016.659
2019-03-25T02:15:01.522Z,1016.6522
2019-03-25T02:15:13.451Z,1016.6423